Time;durP1;ratioP1;P1;durP2;ratioP2;P2;SDS_P1;SDS_P2;PMS_P1;PMS_P2;Temp;Humidity;BMP_temperature;BMP_pressure;BME280_temperature;BME280_humidity;BME280_pressure;Samples;Min_cycle;Max_cycle;Signal;HPM_P1;HPM_P2
2023/08/27 00:01:49;;;;;;;0.40;0.40;;;14.30;99.90;;;;;;5124419;27;20415;-80
2023/08/27 00:04:15;;;;;;;1.03;0.40;;;14.20;99.90;;;;;;5135651;27;20062;-80
2023/08/27 00:06:40;;;;;;;0.60;0.60;;;14.20;99.90;;;;;;5134509;27;20066;-80
2023/08/27 00:09:06;;;;;;;0.60;0.60;;;14.20;99.90;;;;;;5136098;27;20039;-81
2023/08/27 00:11:32;;;;;;;0.30;0.30;;;14.20;99.90;;;;;;5135797;27;20459;-81
2023/08/27 00:13:58;;;;;;;0.40;0.40;;;14.20;99.90;;;;;;5119099;27;20081;-80
2023/08/27 00:16:23;;;;;;;0.30;0.30;;;14.10;99.90;;;;;;5114511;28;20040;-81
2023/08/27 00:18:49;;;;;;;0.40;0.40;;;14.10;99.90;;;;;;5123503;27;20055;-81
2023/08/27 00:21:15;;;;;;;0.40;0.40;;;14.10;99.90;;;;;;5135247;27;20042;-80
2023/08/27 00:23:41;;;;;;;0.40;0.40;;;14.50;99.90;;;;;;5132499;27;20109;-80
2023/08/27 00:26:07;;;;;;;0.40;0.40;;;14.00;99.90;;;;;;5115048;28;20039;-80
2023/08/27 00:28:32;;;;;;;0.60;0.40;;;14.10;99.90;;;;;;5114628;28;20344;-81
2023/08/27 00:31:03;;;;;;;0.50;0.50;;;14.00;99.90;;;;;;5114474;28;20043;-81
2023/08/27 00:33:29;;;;;;;0.40;0.40;;;14.00;99.90;;;;;;5114363;28;20049;-81
2023/08/27 00:35:55;;;;;;;0.40;0.40;;;14.00;99.90;;;;;;5123708;27;20067;-80
2023/08/27 00:38:20;;;;;;;0.40;0.40;;;14.00;99.90;;;;;;5134675;27;20062;-80
2023/08/27 00:40:46;;;;;;;0.30;0.30;;;14.00;99.90;;;;;;5126458;27;20035;-80
2023/08/27 00:43:12;;;;;;;0.50;0.50;;;14.00;99.90;;;;;;5114388;28;20035;-80
2023/08/27 00:45:38;;;;;;;0.40;0.40;;;14.00;99.90;;;;;;5114315;28;20044;-81
2023/08/27 00:48:03;;;;;;;0.40;0.40;;;14.00;99.90;;;;;;5114428;28;20028;-80
2023/08/27 00:50:30;;;;;;;0.30;0.30;;;13.90;99.90;;;;;;5114305;28;20043;-80
2023/08/27 00:52:56;;;;;;;0.40;0.40;;;13.90;99.90;;;;;;5114081;28;20039;-81
2023/08/27 00:55:22;;;;;;;0.50;0.40;;;13.80;99.90;;;;;;5147689;27;20046;-80
2023/08/27 00:57:49;;;;;;;0.40;0.40;;;13.80;99.90;;;;;;5132587;27;20063;-80
2023/08/27 01:00:16;;;;;;;0.30;0.30;;;13.80;99.90;;;;;;5134025;27;20488;-81
2023/08/27 01:02:43;;;;;;;0.30;0.30;;;13.80;99.90;;;;;;5134858;27;20039;-82
2023/08/27 01:05:10;;;;;;;0.52;0.50;;;13.80;99.90;;;;;;5128714;27;20425;-82
2023/08/27 01:07:46;;;;;;;0.40;0.40;;;13.80;99.90;;;;;;5112846;28;20047;-80
2023/08/27 01:10:21;;;;;;;0.40;0.40;;;13.80;99.90;;;;;;5114866;28;20040;-80
2023/08/27 01:12:55;;;;;;;0.40;0.40;;;13.80;99.90;;;;;;5113686;28;20514;-80
2023/08/27 01:15:22;;;;;;;0.38;0.38;;;13.80;99.90;;;;;;5114554;28;20127;-80
2023/08/27 01:17:48;;;;;;;0.30;0.30;;;13.80;99.90;;;;;;5113436;28;20133;-81
2023/08/27 01:20:15;;;;;;;0.38;0.38;;;13.80;99.90;;;;;;5114675;28;20367;-81
2023/08/27 01:22:40;;;;;;;0.40;0.40;;;13.80;99.90;;;;;;5112284;28;20093;-81
2023/08/27 01:25:08;;;;;;;0.30;0.30;;;13.90;99.90;;;;;;5112625;28;20349;-82
2023/08/27 01:27:50;;;;;;;1.00;0.40;;;13.90;99.90;;;;;;5129127;28;20035;-82
2023/08/27 01:30:33;;;;;;;0.40;0.40;;;14.00;99.90;;;;;;5116851;27;20043;-81
2023/08/27 01:33:05;;;;;;;0.50;0.50;;;13.90;99.90;;;;;;5113657;28;20047;-81
2023/08/27 01:35:33;;;;;;;0.50;0.50;;;14.00;99.90;;;;;;5113886;28;20044;-82
2023/08/27 01:37:59;;;;;;;0.40;0.40;;;14.00;99.90;;;;;;5113359;28;20051;-83
2023/08/27 01:40:27;;;;;;;0.50;0.50;;;14.00;99.90;;;;;;5113127;28;20031;-82
2023/08/27 01:42:53;;;;;;;0.60;0.60;;;14.00;99.90;;;;;;5114623;28;20048;-81
2023/08/27 01:45:19;;;;;;;0.30;0.30;;;14.00;99.90;;;;;;5134157;27;20088;-82
2023/08/27 01:47:44;;;;;;;0.50;0.50;;;14.00;99.90;;;;;;5127724;27;20123;-82
2023/08/27 01:50:10;;;;;;;0.38;0.38;;;14.00;99.90;;;;;;5115061;28;20352;-82
2023/08/27 01:52:36;;;;;;;0.40;0.40;;;14.00;99.90;;;;;;5117101;28;20475;-82
2023/08/27 01:55:04;;;;;;;0.63;0.60;;;14.00;99.90;;;;;;5117260;28;20064;-81
2023/08/27 01:57:29;;;;;;;0.35;0.35;;;14.00;99.90;;;;;;5117318;28;20085;-82
2023/08/27 01:59:55;;;;;;;0.40;0.40;;;14.00;99.90;;;;;;5117815;27;20552;-82
2023/08/27 02:02:21;;;;;;;0.40;0.40;;;14.10;99.90;;;;;;5117578;28;20096;-82
2023/08/27 02:04:46;;;;;;;0.40;0.40;;;14.10;99.90;;;;;;5117389;28;20040;-82
2023/08/27 02:07:12;;;;;;;0.40;0.40;;;14.10;99.90;;;;;;5117137;28;20043;-82
2023/08/27 02:09:38;;;;;;;0.37;0.37;;;14.20;99.90;;;;;;5117847;28;20048;-81
2023/08/27 02:12:04;;;;;;;0.30;0.30;;;14.10;99.90;;;;;;5116936;28;20031;-81
2023/08/27 02:14:30;;;;;;;0.30;0.30;;;14.10;99.90;;;;;;5117077;28;20028;-81
2023/08/27 02:16:55;;;;;;;0.30;0.30;;;14.10;99.90;;;;;;5119092;27;20100;-82
2023/08/27 02:19:21;;;;;;;0.40;0.40;;;14.30;99.90;;;;;;5137680;27;20467;-81
2023/08/27 02:21:47;;;;;;;0.40;0.40;;;14.20;99.90;;;;;;5137327;27;20122;-82
2023/08/27 02:24:13;;;;;;;1.50;0.50;;;14.10;99.90;;;;;;5135961;27;20127;-81
2023/08/27 02:26:39;;;;;;;0.40;0.40;;;14.30;99.90;;;;;;5117042;28;20047;-81
2023/08/27 02:29:04;;;;;;;0.50;0.40;;;14.10;99.90;;;;;;5116570;28;20142;-82
2023/08/27 02:31:30;;;;;;;0.30;0.30;;;14.10;99.90;;;;;;5117127;28;20043;-81
2023/08/27 02:33:56;;;;;;;0.40;0.40;;;14.10;99.90;;;;;;5118733;27;20044;-81
2023/08/27 02:36:21;;;;;;;0.38;0.38;;;14.00;99.90;;;;;;5136940;27;20049;-82
2023/08/27 02:38:47;;;;;;;0.40;0.40;;;14.00;99.90;;;;;;5116516;27;20055;-81
2023/08/27 02:41:13;;;;;;;0.30;0.30;;;13.90;99.90;;;;;;5116623;28;20095;-81
2023/08/27 02:43:39;;;;;;;0.43;0.43;;;13.90;99.90;;;;;;5116721;28;20044;-81
2023/08/27 02:46:04;;;;;;;0.40;0.40;;;13.80;99.90;;;;;;5116635;28;20046;-81
2023/08/27 02:48:30;;;;;;;0.37;0.37;;;13.80;99.90;;;;;;5116265;28;20032;-81
2023/08/27 02:50:56;;;;;;;0.50;0.50;;;13.80;99.90;;;;;;5118576;27;20083;-81
2023/08/27 02:53:21;;;;;;;0.60;0.60;;;13.70;99.90;;;;;;5136537;27;20035;-82
2023/08/27 02:55:48;;;;;;;0.40;0.40;;;13.60;99.90;;;;;;5133058;27;20040;-81
2023/08/27 02:58:14;;;;;;;0.40;0.40;;;;;;;;;;5115978;28;20081;-81
2023/08/27 03:00:40;;;;;;;0.35;0.35;;;13.60;99.90;;;;;;5115905;28;20475;-82
2023/08/27 03:03:07;;;;;;;1.35;0.60;;;13.60;99.90;;;;;;5114829;28;20494;-81
2023/08/27 03:05:33;;;;;;;0.65;0.65;;;13.60;99.90;;;;;;5115974;28;20047;-82
2023/08/27 03:07:59;;;;;;;0.40;0.40;;;13.60;99.90;;;;;;5118717;27;20055;-81
2023/08/27 03:10:24;;;;;;;0.30;0.30;;;13.60;99.90;;;;;;5121093;27;20543;-81
2023/08/27 03:12:50;;;;;;;0.30;0.30;;;13.60;99.90;;;;;;5116124;28;20067;-81
2023/08/27 03:15:16;;;;;;;0.50;0.50;;;13.50;99.90;;;;;;5116462;28;20463;-81
2023/08/27 03:17:41;;;;;;;0.50;0.50;;;13.50;99.90;;;;;;5114864;28;20035;-81
2023/08/27 03:20:08;;;;;;;0.40;0.40;;;13.50;99.90;;;;;;5116067;28;20452;-81
2023/08/27 03:22:33;;;;;;;0.30;0.30;;;13.50;99.90;;;;;;5115129;28;20035;-81
2023/08/27 03:25:01;;;;;;;1.58;0.80;;;13.50;99.90;;;;;;5115677;27;20055;-82
2023/08/27 03:27:27;;;;;;;0.30;0.30;;;13.50;99.90;;;;;;5115761;28;20039;-81
2023/08/27 03:29:53;;;;;;;0.50;0.50;;;13.50;99.90;;;;;;5115473;28;20044;-81
2023/08/27 03:32:18;;;;;;;0.50;0.50;;;13.50;99.90;;;;;;5115426;28;20479;-81
2023/08/27 03:34:44;;;;;;;0.47;0.40;;;13.50;99.90;;;;;;5115390;28;20042;-81
2023/08/27 03:37:10;;;;;;;0.60;0.60;;;13.50;99.90;;;;;;5114805;28;20471;-81
2023/08/27 03:39:35;;;;;;;0.63;0.63;;;13.50;99.90;;;;;;5116454;28;20486;-81
2023/08/27 03:42:01;;;;;;;2.03;0.45;;;13.50;99.90;;;;;;5116332;27;20039;-82
2023/08/27 03:44:27;;;;;;;0.40;0.40;;;13.50;99.90;;;;;;5114481;28;20860;-79
2023/08/27 03:46:52;;;;;;;0.37;0.37;;;13.50;99.90;;;;;;5115470;28;20379;-82
2023/08/27 03:49:18;;;;;;;0.40;0.40;;;13.60;99.90;;;;;;5114958;28;20048;-80
2023/08/27 03:51:44;;;;;;;0.40;0.40;;;13.60;99.90;;;;;;5115100;28;20043;-82
2023/08/27 03:54:09;;;;;;;0.52;0.50;;;13.60;99.90;;;;;;5115581;28;20039;-79
2023/08/27 03:56:35;;;;;;;0.40;0.40;;;13.60;99.90;;;;;;5114676;28;20043;-81
2023/08/27 03:59:01;;;;;;;0.30;0.30;;;13.60;99.90;;;;;;5115548;27;20078;-79
2023/08/27 04:01:26;;;;;;;0.40;0.40;;;13.70;99.90;;;;;;5115188;28;20063;-80
2023/08/27 04:03:53;;;;;;;0.30;0.30;;;13.70;99.90;;;;;;5115092;28;20074;-79
2023/08/27 04:06:19;;;;;;;0.47;0.47;;;13.70;99.90;;;;;;5114970;28;20054;-80
2023/08/27 04:08:44;;;;;;;0.50;0.50;;;13.70;99.90;;;;;;5114991;28;20044;-81
2023/08/27 04:11:11;;;;;;;0.50;0.50;;;13.70;99.90;;;;;;5114938;28;20361;-80
2023/08/27 04:13:37;;;;;;;0.50;0.50;;;13.70;99.90;;;;;;5114913;28;20039;-81
2023/08/27 04:16:05;;;;;;;0.40;0.40;;;13.70;99.90;;;;;;5117673;27;20133;-81
2023/08/27 04:18:32;;;;;;;0.30;0.30;;;13.70;99.90;;;;;;5135336;27;20054;-80
2023/08/27 04:20:58;;;;;;;0.30;0.30;;;13.70;99.90;;;;;;5135068;27;20046;-81
2023/08/27 04:23:24;;;;;;;0.40;0.40;;;13.70;99.90;;;;;;5115087;27;20027;-81
2023/08/27 04:25:49;;;;;;;0.40;0.40;;;13.70;99.90;;;;;;5115035;28;20035;-80
2023/08/27 04:28:15;;;;;;;0.40;0.40;;;13.70;99.90;;;;;;5114147;28;20463;-80
2023/08/27 04:30:44;;;;;;;0.55;0.55;;;13.70;99.90;;;;;;5114621;28;20035;-80
2023/08/27 04:33:11;;;;;;;0.30;0.30;;;13.70;99.90;;;;;;5116952;27;20039;-80
2023/08/27 04:35:38;;;;;;;0.30;0.30;;;13.70;99.90;;;;;;5114402;28;20092;-80
2023/08/27 04:38:05;;;;;;;0.30;0.30;;;13.70;99.90;;;;;;5113269;28;20039;-80
2023/08/27 04:40:30;;;;;;;0.30;0.30;;;13.70;99.90;;;;;;5114142;28;20483;-81
2023/08/27 04:42:58;;;;;;;0.40;0.40;;;13.70;99.90;;;;;;5113481;28;20051;-81
2023/08/27 04:45:23;;;;;;;0.40;0.40;;;13.70;99.90;;;;;;5113935;28;20035;-81
2023/08/27 04:47:49;;;;;;;0.37;0.37;;;13.70;99.90;;;;;;5114278;28;20038;-81
2023/08/27 04:50:15;;;;;;;0.40;0.40;;;13.70;99.90;;;;;;5118744;27;20041;-80
2023/08/27 04:52:40;;;;;;;1.17;0.60;;;13.70;99.90;;;;;;5135111;27;20039;-80
2023/08/27 04:55:07;;;;;;;0.80;0.60;;;13.70;99.90;;;;;;5134631;27;20035;-80
2023/08/27 04:57:36;;;;;;;0.40;0.40;;;13.70;99.90;;;;;;5115577;27;20073;-81
2023/08/27 05:00:20;;;;;;;0.38;0.38;;;13.70;99.90;;;;;;5114163;28;20031;-80
2023/08/27 05:02:47;;;;;;;0.40;0.40;;;13.70;99.90;;;;;;5113791;28;20425;-79
2023/08/27 05:05:12;;;;;;;0.35;0.35;;;13.70;99.90;;;;;;5112691;28;20044;-80
2023/08/27 05:07:38;;;;;;;0.40;0.40;;;13.70;99.90;;;;;;5114389;28;20066;-80
2023/08/27 05:10:04;;;;;;;0.40;0.40;;;13.70;99.90;;;;;;5113861;28;20436;-80
2023/08/27 05:12:30;;;;;;;0.50;0.50;;;13.70;99.90;;;;;;5114070;28;20139;-79
2023/08/27 05:14:56;;;;;;;0.30;0.30;;;13.80;99.90;;;;;;5114136;28;20122;-79
2023/08/27 05:17:21;;;;;;;0.50;0.50;;;13.80;99.90;;;;;;5113898;28;20467;-80
2023/08/27 05:19:47;;;;;;;0.40;0.40;;;13.80;99.90;;;;;;5113848;28;20047;-80
2023/08/27 05:22:12;;;;;;;0.40;0.40;;;13.80;99.90;;;;;;5129726;28;20035;-80
2023/08/27 05:24:38;;;;;;;0.32;0.32;;;13.90;99.90;;;;;;5116851;27;20155;-79
2023/08/27 05:27:04;;;;;;;0.40;0.40;;;14.00;99.90;;;;;;5117652;28;20044;-79
2023/08/27 05:29:29;;;;;;;0.65;0.65;;;14.00;99.90;;;;;;5117655;28;20035;-79
2023/08/27 05:31:55;;;;;;;0.40;0.40;;;14.10;99.90;;;;;;5118059;28;20111;-80
2023/08/27 05:34:21;;;;;;;0.40;0.40;;;14.00;99.90;;;;;;5117762;28;20452;-80
2023/08/27 05:36:46;;;;;;;0.40;0.40;;;14.10;99.90;;;;;;5116844;28;20043;-81
2023/08/27 05:39:14;;;;;;;0.40;0.40;;;14.00;99.90;;;;;;5117869;28;20031;-87
2023/08/27 05:41:40;;;;;;;0.40;0.40;;;14.30;99.90;;;;;;5126111;27;20039;-79
2023/08/27 05:44:06;;;;;;;0.40;0.40;;;14.30;99.90;;;;;;5127244;27;20039;-73
2023/08/27 05:46:31;;;;;;;0.40;0.40;;;14.30;99.90;;;;;;5117567;28;20040;-80
2023/08/27 05:48:57;;;;;;;0.33;0.33;;;14.30;99.90;;;;;;5117752;28;20059;-80
2023/08/27 05:51:23;;;;;;;1.23;0.70;;;14.30;99.90;;;;;;5116968;28;20383;-82
2023/08/27 05:53:48;;;;;;;0.47;0.47;;;14.40;99.90;;;;;;5117408;28;20043;-79
2023/08/27 05:56:14;;;;;;;0.40;0.40;;;14.40;99.90;;;;;;5115946;28;20538;-80
2023/08/27 05:58:39;;;;;;;0.35;0.35;;;14.50;99.90;;;;;;5117865;27;20035;-81
2023/08/27 06:01:05;;;;;;;0.87;0.53;;;14.60;99.90;;;;;;5117244;28;20409;-81
2023/08/27 06:03:31;;;;;;;0.40;0.40;;;14.50;99.90;;;;;;5116932;28;20122;-78
2023/08/27 06:05:57;;;;;;;0.40;0.40;;;14.50;99.90;;;;;;5116453;28;20371;-80
2023/08/27 06:08:23;;;;;;;0.53;0.53;;;14.50;99.90;;;;;;5117092;28;20501;-75
2023/08/27 06:10:48;;;;;;;0.40;0.40;;;14.50;99.90;;;;;;5117220;28;20457;-78
2023/08/27 06:13:14;;;;;;;0.63;0.63;;;14.50;99.90;;;;;;5117284;28;20088;-78
2023/08/27 06:15:40;;;;;;;0.40;0.40;;;14.70;99.90;;;;;;5117660;28;20043;-79
2023/08/27 06:18:07;;;;;;;0.50;0.50;;;14.50;99.90;;;;;;5116850;27;20079;-79
2023/08/27 06:20:33;;;;;;;0.50;0.40;;;14.50;99.90;;;;;;5116944;28;20075;-81
2023/08/27 06:22:59;;;;;;;0.60;0.60;;;14.50;99.90;;;;;;5117166;28;20088;-80
2023/08/27 06:25:25;;;;;;;0.75;0.68;;;14.50;99.90;;;;;;5117058;28;20032;-82
2023/08/27 06:27:54;;;;;;;0.30;0.30;;;14.50;99.90;;;;;;5116117;28;20038;-81
2023/08/27 06:30:20;;;;;;;0.32;0.32;;;14.50;99.90;;;;;;5116194;28;20040;-79
2023/08/27 06:32:45;;;;;;;0.40;0.40;;;14.70;99.90;;;;;;5125706;27;20519;-79
2023/08/27 06:35:11;;;;;;;0.47;0.43;;;14.50;99.90;;;;;;5136901;27;20047;-82
2023/08/27 06:37:37;;;;;;;0.30;0.30;;;14.50;99.90;;;;;;5137286;27;20097;-80
2023/08/27 06:40:03;;;;;;;0.60;0.47;;;14.50;99.90;;;;;;5137331;27;20050;-76
2023/08/27 06:42:28;;;;;;;0.30;0.30;;;14.50;99.90;;;;;;5136288;27;20466;-79
2023/08/27 06:44:54;;;;;;;0.43;0.43;;;14.50;99.90;;;;;;5118999;27;20036;-76
2023/08/27 06:47:20;;;;;;;0.40;0.40;;;14.40;99.90;;;;;;5116463;28;20039;-78
2023/08/27 06:49:46;;;;;;;0.25;0.25;;;14.40;99.90;;;;;;5116786;27;20042;-76
2023/08/27 06:52:11;;;;;;;0.30;0.30;;;14.40;99.90;;;;;;5116426;28;20039;-78
2023/08/27 06:54:37;;;;;;;0.40;0.40;;;14.40;99.90;;;;;;5115964;28;20031;-77
2023/08/27 06:57:03;;;;;;;0.63;0.45;;;14.30;99.90;;;;;;5116084;28;20039;-76
2023/08/27 06:59:29;;;;;;;0.50;0.50;;;14.30;99.90;;;;;;5116553;28;20050;-79
2023/08/27 07:01:54;;;;;;;0.40;0.40;;;14.30;99.90;;;;;;5116263;28;20044;-79
2023/08/27 07:04:20;;;;;;;0.40;0.40;;;14.80;99.90;;;;;;5116310;27;20141;-77
2023/08/27 07:06:46;;;;;;;0.30;0.30;;;14.30;99.90;;;;;;5124925;27;20487;-78
2023/08/27 07:09:11;;;;;;;1.17;0.93;;;14.30;99.90;;;;;;5136946;27;20050;-78
2023/08/27 07:11:38;;;;;;;0.30;0.30;;;14.30;99.90;;;;;;5136035;27;20039;-73
2023/08/27 07:14:03;;;;;;;0.55;0.50;;;14.30;99.90;;;;;;5136576;27;20039;-73
2023/08/27 07:16:29;;;;;;;0.43;0.43;;;14.30;99.90;;;;;;5134270;27;20375;-74
2023/08/27 07:18:55;;;;;;;0.30;0.30;;;14.30;99.90;;;;;;5115816;28;20502;-74
2023/08/27 07:21:21;;;;;;;0.40;0.40;;;14.20;99.90;;;;;;5116041;28;20044;-78
2023/08/27 07:23:46;;;;;;;0.50;0.50;;;14.20;99.90;;;;;;5116729;27;20036;-77
2023/08/27 07:26:12;;;;;;;0.67;0.53;;;14.10;99.90;;;;;;5115922;28;20496;-79
2023/08/27 07:28:38;;;;;;;0.30;0.30;;;14.20;99.90;;;;;;5116315;27;20413;-77
2023/08/27 07:31:04;;;;;;;0.38;0.38;;;14.70;99.90;;;;;;5115684;28;20042;-81
2023/08/27 07:33:30;;;;;;;0.53;0.50;;;14.40;99.90;;;;;;5115727;27;20055;-80
2023/08/27 07:35:56;;;;;;;0.33;0.33;;;14.50;99.90;;;;;;5115832;28;20035;-78
2023/08/27 07:38:25;;;;;;;0.30;0.30;;;14.80;99.90;;;;;;5115604;28;20036;-80
2023/08/27 07:40:51;;;;;;;0.30;0.30;;;15.00;99.90;;;;;;5128529;27;20391;-76
2023/08/27 07:43:17;;;;;;;0.57;0.57;;;15.20;99.90;;;;;;5115508;28;20035;-77
2023/08/27 07:45:42;;;;;;;0.40;0.40;;;15.40;99.90;;;;;;5115207;28;20036;-76
2023/08/27 07:48:08;;;;;;;0.40;0.40;;;15.50;99.90;;;;;;5114226;28;20050;-82
2023/08/27 07:50:34;;;;;;;0.50;0.50;;;15.60;99.90;;;;;;5115261;28;20047;-82
2023/08/27 07:52:59;;;;;;;0.30;0.30;;;15.70;99.90;;;;;;5114938;28;20042;-81
2023/08/27 07:55:25;;;;;;;0.30;0.30;;;15.80;99.90;;;;;;5114632;28;20143;-81
2023/08/27 07:57:51;;;;;;;0.68;0.55;;;15.90;99.90;;;;;;5115504;27;20035;-84
2023/08/27 08:00:19;;;;;;;0.40;0.40;;;16.00;99.90;;;;;;5115239;28;20040;-86
2023/08/27 08:02:44;;;;;;;0.30;0.30;;;16.00;99.90;;;;;;5113894;28;20043;-84
2023/08/27 08:05:10;;;;;;;0.43;0.43;;;16.00;99.90;;;;;;5114750;28;20038;-85
2023/08/27 08:07:36;;;;;;;0.30;0.30;;;16.40;99.90;;;;;;5114771;28;20051;-83
2023/08/27 08:10:02;;;;;;;0.30;0.30;;;15.90;99.90;;;;;;5115271;28;20394;-83
2023/08/27 08:12:28;;;;;;;0.32;0.32;;;16.00;99.90;;;;;;5114514;28;20043;-85
2023/08/27 08:14:53;;;;;;;1.17;0.50;;;16.20;99.90;;;;;;5106675;27;20050;-79
2023/08/27 08:17:19;;;;;;;0.33;0.33;;;16.20;99.90;;;;;;5124052;27;20044;-80
2023/08/27 08:19:45;;;;;;;0.50;0.50;;;16.20;99.90;;;;;;5113685;28;20073;-78
2023/08/27 08:22:12;;;;;;;0.33;0.33;;;16.30;99.90;;;;;;5114796;28;20040;-79
2023/08/27 08:24:38;;;;;;;0.30;0.30;;;16.20;99.90;;;;;;5114610;28;20463;-82
2023/08/27 08:27:07;;;;;;;0.50;0.50;;;16.20;99.90;;;;;;5112629;28;20080;-81
2023/08/27 08:29:32;;;;;;;0.30;0.30;;;16.10;99.90;;;;;;5112041;28;20036;-78
2023/08/27 08:31:59;;;;;;;1.20;0.40;;;16.10;99.90;;;;;;5120869;27;20055;-80
2023/08/27 08:34:29;;;;;;;0.30;0.30;;;16.00;99.90;;;;;;5114258;28;20039;-79
2023/08/27 08:36:55;;;;;;;0.35;0.35;;;16.10;99.90;;;;;;5114184;28;20032;-81
2023/08/27 08:39:23;;;;;;;0.30;0.30;;;16.20;99.90;;;;;;5111152;28;20041;-76
2023/08/27 08:42:00;;;;;;;0.50;0.50;;;16.30;99.90;;;;;;5112933;28;20093;-81
2023/08/27 08:44:45;;;;;;;0.30;0.30;;;16.50;99.90;;;;;;5113259;28;20038;-78
2023/08/27 08:47:14;;;;;;;0.30;0.30;;;16.60;99.90;;;;;;5114519;28;20114;-77
2023/08/27 08:49:41;;;;;;;0.35;0.32;;;16.80;99.90;;;;;;5131055;27;20217;-77
2023/08/27 08:52:09;;;;;;;0.30;0.30;;;16.90;99.90;;;;;;5120180;27;20046;-77
2023/08/27 08:54:40;;;;;;;0.30;0.30;;;17.00;99.90;;;;;;5114031;28;20517;-75
2023/08/27 08:57:11;;;;;;;0.30;0.30;;;17.10;99.90;;;;;;5113983;28;20104;-78
2023/08/27 08:59:38;;;;;;;0.30;0.30;;;17.20;99.90;;;;;;5114161;28;20040;-76
2023/08/27 09:02:04;;;;;;;0.30;0.30;;;17.30;99.90;;;;;;5114030;28;20121;-79
2023/08/27 09:04:31;;;;;;;0.40;0.40;;;17.40;99.90;;;;;;5113653;28;20031;-80
2023/08/27 09:07:05;;;;;;;;;;;17.50;99.90;;;;;;5134834;27;20047;-75
2023/08/27 09:09:59;;;;;;;0.30;0.30;;;17.40;99.90;;;;;;5121877;27;20385;-79
2023/08/27 09:12:27;;;;;;;0.30;0.30;;;17.50;99.90;;;;;;5113817;28;20083;-72
2023/08/27 09:14:54;;;;;;;0.30;0.30;;;17.60;99.90;;;;;;5113853;28;20043;-69
2023/08/27 09:17:21;;;;;;;0.32;0.32;;;17.70;99.90;;;;;;5113738;28;20058;-76
2023/08/27 09:19:47;;;;;;;0.30;0.30;;;17.80;99.90;;;;;;5114694;28;20043;-76
2023/08/27 09:22:14;;;;;;;0.40;0.40;;;18.00;99.90;;;;;;5118045;28;20046;-77
2023/08/27 09:24:40;;;;;;;;;;;18.10;99.90;;;;;;5134885;27;20046;-79
2023/08/27 09:27:05;;;;;;;0.30;0.30;;;18.20;99.90;;;;;;5134789;27;19959;-77
2023/08/27 09:29:33;;;;;;;0.30;0.30;;;18.30;99.90;;;;;;5133703;28;20047;-87
2023/08/27 09:31:59;;;;;;;0.30;0.30;;;18.40;99.90;;;;;;5126690;28;20089;-83
2023/08/27 09:34:25;;;;;;;0.73;0.73;;;18.40;99.90;;;;;;5112594;28;20075;-83
2023/08/27 09:36:51;;;;;;;0.30;0.30;;;18.40;99.90;;;;;;5113515;28;20097;-78
2023/08/27 09:39:18;;;;;;;0.30;0.30;;;18.50;99.90;;;;;;5118720;28;20039;-72
2023/08/27 09:41:44;;;;;;;;;;;18.50;99.90;;;;;;5134651;27;20039;-70
2023/08/27 09:44:10;;;;;;;0.30;0.30;;;18.60;99.90;;;;;;5126287;28;19927;-73
2023/08/27 09:46:37;;;;;;;0.30;0.30;;;18.60;99.90;;;;;;5113824;28;20039;-75
2023/08/27 09:49:06;;;;;;;0.30;0.30;;;18.70;99.90;;;;;;5113423;28;20036;-73
2023/08/27 09:51:40;;;;;;;0.40;0.40;;;18.70;99.90;;;;;;5113650;28;20375;-76
2023/08/27 09:54:17;;;;;;;0.40;0.40;;;18.60;99.90;;;;;;5113395;28;20039;-79
2023/08/27 09:56:49;;;;;;;;;;;18.70;99.90;;;;;;5113878;28;20434;-77
2023/08/27 09:59:16;;;;;;;0.20;0.20;;;18.80;99.90;;;;;;5113231;28;19969;-86
2023/08/27 10:01:49;;;;;;;0.30;0.30;;;19.00;99.90;;;;;;5095451;28;20054;-84
2023/08/27 10:04:15;;;;;;;0.45;0.45;;;19.20;99.90;;;;;;5113594;28;20097;-80
2023/08/27 10:06:42;;;;;;;0.25;0.25;;;19.40;99.90;;;;;;5112635;28;20100;-80
2023/08/27 10:09:07;;;;;;;0.40;0.40;;;19.60;99.90;;;;;;5113615;28;20040;-75
2023/08/27 10:11:33;;;;;;;0.57;0.53;;;19.70;99.90;;;;;;5115775;28;20367;-73
2023/08/27 10:14:00;;;;;;;0.30;0.30;;;19.70;99.90;;;;;;5128479;27;20047;-76
2023/08/27 10:16:30;;;;;;;0.60;0.60;;;19.90;99.90;;;;;;5129275;27;20031;-73
2023/08/27 10:18:57;;;;;;;0.30;0.30;;;19.90;99.90;;;;;;5116858;27;20051;-75
2023/08/27 10:21:23;;;;;;;0.63;0.55;;;19.90;99.90;;;;;;5117226;28;20042;-73
2023/08/27 10:23:49;;;;;;;0.23;0.23;;;19.90;99.90;;;;;;5117385;27;20409;-75
2023/08/27 10:26:15;;;;;;;0.30;0.30;;;19.90;99.90;;;;;;5117183;27;20032;-74
2023/08/27 10:28:41;;;;;;;0.30;0.30;;;20.10;99.90;;;;;;5116834;28;20104;-75
2023/08/27 10:31:07;;;;;;;0.30;0.30;;;20.10;99.90;;;;;;5112834;28;20486;-74
2023/08/27 10:33:33;;;;;;;0.30;0.30;;;20.20;99.90;;;;;;5116864;28;20035;-75
2023/08/27 10:36:06;;;;;;;0.30;0.30;;;20.30;99.90;;;;;;5116520;28;20394;-76
2023/08/27 10:38:38;;;;;;;0.30;0.30;;;20.20;99.90;;;;;;5116753;28;20035;-74
2023/08/27 10:41:05;;;;;;;0.30;0.30;;;20.10;99.90;;;;;;5117588;27;20449;-76
2023/08/27 10:43:35;;;;;;;0.35;0.35;;;20.10;99.90;;;;;;5116629;28;20044;-73
2023/08/27 10:46:17;;;;;;;0.20;0.20;;;20.00;99.90;;;;;;5115863;28;20095;-79
2023/08/27 10:48:51;;;;;;;0.30;0.30;;;20.10;99.90;;;;;;5114287;27;20039;-73
2023/08/27 10:51:18;;;;;;;0.30;0.30;;;20.10;99.90;;;;;;5116312;28;20039;-76
2023/08/27 10:53:50;;;;;;;0.35;0.35;;;20.10;99.90;;;;;;5116262;28;20467;-74
2023/08/27 10:56:34;;;;;;;1.00;0.50;;;20.10;99.90;;;;;;5115011;28;20035;-73
2023/08/27 10:59:03;;;;;;;0.40;0.40;;;20.00;99.90;;;;;;5115628;27;20122;-70
2023/08/27 11:01:33;;;;;;;0.30;0.30;;;19.90;99.90;;;;;;5114690;27;20038;-78
2023/08/27 11:04:06;;;;;;;0.30;0.30;;;20.10;99.90;;;;;;5116847;27;20058;-72
2023/08/27 11:06:46;;;;;;;0.30;0.30;;;20.20;99.90;;;;;;5116296;28;20035;-80
2023/08/27 11:09:20;;;;;;;1.90;1.10;;;20.50;99.90;;;;;;5113086;28;20046;-89
2023/08/27 11:11:59;;;;;;;0.73;0.73;;;20.60;99.90;;;;;;5098373;28;20050;-78
2023/08/27 11:14:25;;;;;;;0.20;0.20;;;20.50;99.90;;;;;;5116023;28;20476;-83
2023/08/27 11:16:57;;;;;;;0.52;0.52;;;20.40;99.90;;;;;;5114996;28;20122;-76
2023/08/27 11:19:32;;;;;;;0.30;0.30;;;20.40;99.90;;;;;;5116208;28;20501;-78
2023/08/27 11:22:18;;;;;;;0.30;0.30;;;20.50;99.90;;;;;;5116353;27;20118;-76
2023/08/27 11:24:50;;;;;;;0.28;0.28;;;20.60;99.90;;;;;;5115248;28;20047;-79
2023/08/27 11:27:17;;;;;;;0.30;0.30;;;20.80;99.90;;;;;;5116314;28;20032;-79
2023/08/27 11:29:48;;;;;;;0.63;0.32;;;20.80;99.90;;;;;;5116285;28;20048;-82
2023/08/27 11:32:15;;;;;;;0.30;0.30;;;20.80;99.90;;;;;;5116216;28;20067;-82
2023/08/27 11:34:46;;;;;;;0.30;0.30;;;20.80;99.90;;;;;;5116202;28;20043;-82
2023/08/27 11:37:12;;;;;;;0.40;0.40;;;20.80;99.90;;;;;;5115466;28;20032;-82
2023/08/27 11:39:39;;;;;;;0.30;0.30;;;20.90;99.90;;;;;;5116313;27;20039;-82
2023/08/27 11:42:23;;;;;;;0.40;0.40;;;20.80;99.90;;;;;;5115412;28;20035;-82
2023/08/27 11:44:54;;;;;;;0.30;0.30;;;20.80;99.90;;;;;;5115731;28;20460;-81
2023/08/27 11:47:21;;;;;;;0.20;0.20;;;20.80;99.90;;;;;;5115265;28;20051;-78
2023/08/27 11:49:48;;;;;;;0.20;0.20;;;20.80;99.90;;;;;;5115423;28;20084;-75
2023/08/27 11:52:14;;;;;;;0.20;0.20;;;20.60;99.90;;;;;;5114684;28;20086;-76
2023/08/27 11:54:42;;;;;;;0.57;0.57;;;20.50;99.90;;;;;;5115422;28;20051;-77
2023/08/27 11:57:08;;;;;;;0.30;0.30;;;20.40;99.90;;;;;;5120662;27;20047;-75
2023/08/27 11:59:33;;;;;;;0.83;0.60;;;20.30;99.90;;;;;;5114955;27;20035;-77
2023/08/27 12:02:02;;;;;;;0.30;0.30;;;20.20;99.90;;;;;;5115056;28;20132;-76
2023/08/27 12:04:28;;;;;;;0.30;0.30;;;20.20;99.90;;;;;;5115137;28;20039;-76
2023/08/27 12:06:59;;;;;;;0.30;0.30;;;20.00;99.90;;;;;;5114960;28;21764;-75
2023/08/27 12:09:27;;;;;;;0.30;0.30;;;20.00;99.90;;;;;;5113962;28;20039;-75
2023/08/27 12:11:53;;;;;;;0.40;0.40;;;20.00;99.90;;;;;;5115825;27;20039;-75
2023/08/27 12:14:24;;;;;;;0.30;0.30;;;19.90;99.90;;;;;;5115105;28;20114;-76
2023/08/27 12:16:50;;;;;;;0.40;0.40;;;19.90;99.90;;;;;;5114960;28;20053;-74
2023/08/27 12:19:19;;;;;;;0.30;0.30;;;19.90;99.90;;;;;;5115164;28;20031;-74
2023/08/27 12:21:52;;;;;;;0.30;0.30;;;19.80;99.90;;;;;;5114890;28;20354;-74
2023/08/27 12:24:40;;;;;;;0.38;0.38;;;19.70;99.90;;;;;;5114881;28;20096;-74
2023/08/27 12:27:10;;;;;;;0.30;0.30;;;19.50;99.90;;;;;;5114726;28;20130;-74
2023/08/27 12:29:38;;;;;;;0.30;0.30;;;19.30;99.90;;;;;;5115166;27;20046;-75
2023/08/27 12:32:08;;;;;;;0.30;0.30;;;19.20;99.90;;;;;;5114699;28;20039;-75
2023/08/27 12:34:44;;;;;;;0.30;0.30;;;18.90;99.90;;;;;;5114259;28;20043;-74
2023/08/27 12:37:15;;;;;;;0.73;0.35;;;18.80;99.90;;;;;;5114748;28;20135;-74
2023/08/27 12:39:42;;;;;;;0.30;0.30;;;18.70;99.90;;;;;;5114581;28;20035;-74
2023/08/27 12:42:08;;;;;;;0.30;0.30;;;18.60;99.90;;;;;;5114324;28;20386;-77
2023/08/27 12:44:35;;;;;;;0.40;0.40;;;18.70;99.90;;;;;;5114134;28;20043;-75
2023/08/27 12:47:06;;;;;;;0.30;0.30;;;18.70;99.90;;;;;;5114642;27;20459;-74
2023/08/27 12:49:32;;;;;;;0.52;0.43;;;18.70;99.90;;;;;;5114370;28;20035;-76